Aérodrome :
LOGIN :

S'inscrire | Disclaimer

   EN    FR    IT 

 










Légende :    VFR   VFR Marginal   IFR   IFR Intensif   IFR Très Intensif
Visi : 
Plafond : 
>= 8 km
>= 3000ft
5 à 8 km
1000 à 3000 ft
1500m à 5 km
500 à 1000 ft
800 à 1500m
200 à 500 ft
< 800m
< 200 ft
Symboles :   Orages  Brouillard  Fortes neiges  Fortes précipitations  Vent > 20 kt
SIGMETs :   Divers  Orages  Givrage  Turbulence  Onde Orograph.  Cendres Volcan.






- Altitude de l'aérodrome : 768 ft
- Code IATA : MXP


LIMC - Milano Malpensa

DERNIER METAR :
  • 031820Z 30007KT 9999 -RA BKN025 OVC080 19/16 Q1006 NOSIG

METARs EXPIRÉS :
  • 031750Z 21004KT 190V250 9999 SCT030 BKN095 21/16 Q1005 NOSIG
  • 031720Z VRB05KT 9999 SCT040 BKN095 20/16 Q1005 NOSIG
  • 031650Z 33010KT 9999 VCSH FEW035CB BKN045 19/16 Q1005 BECMG TSRA
  • 031620Z 29009KT 230V330 9999 -SHRA VCTS SCT040CB BKN055 21/14 Q1005 BECMG TSRA
  • 031550Z 21010KT 9999 VCTS FEW035CB BKN050 24/15 Q1004 BECMG TSRA

TAF TAF LIMC
Valide du 03 à 18h jusqu'au 05 à 00h UTC


031700Z 0318/0424 VRB05KT 9999 SCT030
BECMG 0406/0408 4000 RA



MET'MAP, la Météo Aéronautique d'un coup d'oeil ! - Copyright ORBIFLY Décembre 2007 - Disclaimer

ORBIFLY MET'MAP TEAM :

Programmation & Développement : Alexandra Zaïnal
Sur une idée originale de : Baudouin d'Aumeries
Assistance à la programmation : Marc-Olivier Méhu
Soutien technique & logistique : Manuel Goepfert

Contact : metmap@orbifly.com




SOURCES & CREDITS :

   NOAA